sensor_id;sensor_type;location;lat;lon;timestamp;P1;durP1;ratioP1;P2;durP2;ratioP2
48403;SDS011;34202;52.536;6.042;2023-06-22T00:00:23;11.30;;;8.70;;
48403;SDS011;34202;52.536;6.042;2023-06-22T00:05:23;9.20;;;8.20;;
48403;SDS011;34202;52.536;6.042;2023-06-22T00:10:24;10.80;;;9.70;;
48403;SDS011;34202;52.536;6.042;2023-06-22T00:15:24;11.70;;;9.40;;
48403;SDS011;34202;52.536;6.042;2023-06-22T00:20:25;12.10;;;9.80;;
48403;SDS011;34202;52.536;6.042;2023-06-22T00:25:30;11.80;;;9.10;;
48403;SDS011;34202;52.536;6.042;2023-06-22T00:30:30;12.30;;;9.90;;
48403;SDS011;34202;52.536;6.042;2023-06-22T00:35:31;9.20;;;7.80;;
48403;SDS011;34202;52.536;6.042;2023-06-22T00:40:32;14.70;;;11.20;;
48403;SDS011;34202;52.536;6.042;2023-06-22T00:45:33;13.20;;;11.20;;
48403;SDS011;34202;52.536;6.042;2023-06-22T00:50:33;13.30;;;11.30;;
48403;SDS011;34202;52.536;6.042;2023-06-22T00:55:35;14.80;;;13.30;;
48403;SDS011;34202;52.536;6.042;2023-06-22T01:00:39;20.60;;;13.20;;
48403;SDS011;34202;52.536;6.042;2023-06-22T01:05:41;18.40;;;14.90;;
48403;SDS011;34202;52.536;6.042;2023-06-22T01:10:46;20.60;;;17.10;;
48403;SDS011;34202;52.536;6.042;2023-06-22T01:21:21;24.70;;;17.30;;
48403;SDS011;34202;52.536;6.042;2023-06-22T01:26:42;25.50;;;19.00;;
48403;SDS011;34202;52.536;6.042;2023-06-22T01:31:54;21.80;;;18.60;;
48403;SDS011;34202;52.536;6.042;2023-06-22T01:36:56;24.70;;;20.50;;
48403;SDS011;34202;52.536;6.042;2023-06-22T01:41:58;28.40;;;22.00;;
48403;SDS011;34202;52.536;6.042;2023-06-22T01:46:59;29.20;;;22.70;;
48403;SDS011;34202;52.536;6.042;2023-06-22T01:52:00;29.10;;;22.10;;
48403;SDS011;34202;52.536;6.042;2023-06-22T01:57:01;24.40;;;20.90;;
48403;SDS011;34202;52.536;6.042;2023-06-22T02:02:02;27.50;;;22.30;;
48403;SDS011;34202;52.536;6.042;2023-06-22T02:12:10;29.20;;;22.40;;
48403;SDS011;34202;52.536;6.042;2023-06-22T02:17:12;24.40;;;19.70;;
48403;SDS011;34202;52.536;6.042;2023-06-22T02:22:14;28.80;;;21.80;;
48403;SDS011;34202;52.536;6.042;2023-06-22T02:27:14;27.40;;;21.80;;
48403;SDS011;34202;52.536;6.042;2023-06-22T02:32:15;28.20;;;25.20;;
48403;SDS011;34202;52.536;6.042;2023-06-22T02:37:17;29.80;;;25.20;;
48403;SDS011;34202;52.536;6.042;2023-06-22T02:42:18;30.60;;;24.50;;
48403;SDS011;34202;52.536;6.042;2023-06-22T02:47:20;28.80;;;25.30;;
48403;SDS011;34202;52.536;6.042;2023-06-22T02:52:21;31.60;;;26.00;;
48403;SDS011;34202;52.536;6.042;2023-06-22T02:57:21;28.00;;;23.90;;
48403;SDS011;34202;52.536;6.042;2023-06-22T03:02:21;29.60;;;25.20;;
48403;SDS011;34202;52.536;6.042;2023-06-22T03:07:22;30.50;;;26.80;;
48403;SDS011;34202;52.536;6.042;2023-06-22T03:12:22;31.70;;;28.10;;
48403;SDS011;34202;52.536;6.042;2023-06-22T03:17:22;35.40;;;27.70;;
48403;SDS011;34202;52.536;6.042;2023-06-22T03:22:23;30.90;;;26.50;;
48403;SDS011;34202;52.536;6.042;2023-06-22T03:27:23;36.70;;;30.30;;
48403;SDS011;34202;52.536;6.042;2023-06-22T03:32:23;34.20;;;27.70;;
48403;SDS011;34202;52.536;6.042;2023-06-22T03:37:25;32.90;;;29.00;;
48403;SDS011;34202;52.536;6.042;2023-06-22T03:42:26;35.90;;;28.60;;
48403;SDS011;34202;52.536;6.042;2023-06-22T03:47:27;31.30;;;26.50;;
48403;SDS011;34202;52.536;6.042;2023-06-22T03:52:27;32.60;;;29.00;;
48403;SDS011;34202;52.536;6.042;2023-06-22T03:57:27;43.40;;;33.80;;
48403;SDS011;34202;52.536;6.042;2023-06-22T04:02:28;34.50;;;29.60;;
48403;SDS011;34202;52.536;6.042;2023-06-22T04:07:28;36.60;;;32.60;;
48403;SDS011;34202;52.536;6.042;2023-06-22T04:12:28;42.60;;;33.70;;
48403;SDS011;34202;52.536;6.042;2023-06-22T04:17:29;36.40;;;28.70;;
48403;SDS011;34202;52.536;6.042;2023-06-22T04:22:29;35.90;;;32.00;;
48403;SDS011;34202;52.536;6.042;2023-06-22T04:27:29;41.40;;;32.80;;
48403;SDS011;34202;52.536;6.042;2023-06-22T04:32:30;37.50;;;30.60;;
48403;SDS011;34202;52.536;6.042;2023-06-22T04:37:30;37.70;;;33.30;;
48403;SDS011;34202;52.536;6.042;2023-06-22T04:42:33;37.20;;;31.70;;
48403;SDS011;34202;52.536;6.042;2023-06-22T04:47:34;30.00;;;23.80;;
48403;SDS011;34202;52.536;6.042;2023-06-22T04:52:39;39.30;;;31.80;;
48403;SDS011;34202;52.536;6.042;2023-06-22T04:57:39;36.00;;;31.40;;
48403;SDS011;34202;52.536;6.042;2023-06-22T05:02:40;43.60;;;35.30;;
48403;SDS011;34202;52.536;6.042;2023-06-22T05:07:44;44.70;;;34.30;;
48403;SDS011;34202;52.536;6.042;2023-06-22T05:12:50;40.60;;;36.10;;
48403;SDS011;34202;52.536;6.042;2023-06-22T05:17:51;43.00;;;36.80;;
48403;SDS011;34202;52.536;6.042;2023-06-22T05:22:51;39.30;;;31.10;;
48403;SDS011;34202;52.536;6.042;2023-06-22T05:27:51;38.70;;;32.10;;
48403;SDS011;34202;52.536;6.042;2023-06-22T05:32:52;36.50;;;29.40;;
48403;SDS011;34202;52.536;6.042;2023-06-22T05:37:52;35.50;;;29.70;;
48403;SDS011;34202;52.536;6.042;2023-06-22T05:42:53;36.70;;;30.00;;
48403;SDS011;34202;52.536;6.042;2023-06-22T05:47:53;36.60;;;29.00;;
48403;SDS011;34202;52.536;6.042;2023-06-22T05:52:53;35.10;;;31.00;;
48403;SDS011;34202;52.536;6.042;2023-06-22T05:57:54;34.20;;;28.10;;
48403;SDS011;34202;52.536;6.042;2023-06-22T06:02:54;36.10;;;29.90;;
48403;SDS011;34202;52.536;6.042;2023-06-22T06:07:55;31.30;;;25.50;;
48403;SDS011;34202;52.536;6.042;2023-06-22T06:12:55;30.00;;;24.90;;
48403;SDS011;34202;52.536;6.042;2023-06-22T06:17:56;25.50;;;21.70;;
48403;SDS011;34202;52.536;6.042;2023-06-22T06:22:56;25.40;;;20.50;;
48403;SDS011;34202;52.536;6.042;2023-06-22T06:27:57;25.80;;;20.20;;
48403;SDS011;34202;52.536;6.042;2023-06-22T06:32:57;23.20;;;16.80;;
48403;SDS011;34202;52.536;6.042;2023-06-22T06:37:58;20.40;;;18.20;;
48403;SDS011;34202;52.536;6.042;2023-06-22T06:42:58;22.10;;;18.90;;
48403;SDS011;34202;52.536;6.042;2023-06-22T06:47:59;19.20;;;16.00;;
48403;SDS011;34202;52.536;6.042;2023-06-22T06:53:00;15.10;;;13.50;;
48403;SDS011;34202;52.536;6.042;2023-06-22T06:58:01;18.60;;;16.30;;
48403;SDS011;34202;52.536;6.042;2023-06-22T07:03:02;17.10;;;14.50;;
48403;SDS011;34202;52.536;6.042;2023-06-22T07:08:03;17.10;;;14.40;;
48403;SDS011;34202;52.536;6.042;2023-06-22T07:13:03;20.20;;;14.80;;
48403;SDS011;34202;52.536;6.042;2023-06-22T07:18:04;15.30;;;12.90;;
48403;SDS011;34202;52.536;6.042;2023-06-22T07:23:04;12.10;;;10.80;;
48403;SDS011;34202;52.536;6.042;2023-06-22T07:28:06;14.30;;;10.50;;
48403;SDS011;34202;52.536;6.042;2023-06-22T07:33:07;11.50;;;10.10;;
48403;SDS011;34202;52.536;6.042;2023-06-22T07:38:08;10.90;;;9.80;;
48403;SDS011;34202;52.536;6.042;2023-06-22T07:43:09;11.30;;;9.70;;
48403;SDS011;34202;52.536;6.042;2023-06-22T07:48:09;11.40;;;9.70;;
48403;SDS011;34202;52.536;6.042;2023-06-22T07:53:10;11.20;;;9.40;;
48403;SDS011;34202;52.536;6.042;2023-06-22T07:58:10;11.40;;;9.60;;
48403;SDS011;34202;52.536;6.042;2023-06-22T08:03:10;9.80;;;8.70;;
48403;SDS011;34202;52.536;6.042;2023-06-22T08:08:11;10.90;;;9.00;;
48403;SDS011;34202;52.536;6.042;2023-06-22T08:13:11;12.90;;;9.70;;
48403;SDS011;34202;52.536;6.042;2023-06-22T08:18:12;15.00;;;11.30;;
48403;SDS011;34202;52.536;6.042;2023-06-22T08:23:12;14.30;;;9.90;;
48403;SDS011;34202;52.536;6.042;2023-06-22T08:28:12;12.20;;;8.80;;
48403;SDS011;34202;52.536;6.042;2023-06-22T08:33:13;10.00;;;8.60;;
48403;SDS011;34202;52.536;6.042;2023-06-22T08:38:13;11.90;;;9.00;;
48403;SDS011;34202;52.536;6.042;2023-06-22T08:43:15;10.40;;;9.20;;
48403;SDS011;34202;52.536;6.042;2023-06-22T08:48:16;10.60;;;9.60;;
48403;SDS011;34202;52.536;6.042;2023-06-22T08:53:16;11.10;;;9.50;;
48403;SDS011;34202;52.536;6.042;2023-06-22T08:58:16;10.50;;;8.00;;
48403;SDS011;34202;52.536;6.042;2023-06-22T09:03:18;12.30;;;7.70;;
48403;SDS011;34202;52.536;6.042;2023-06-22T09:08:20;10.90;;;9.80;;
48403;SDS011;34202;52.536;6.042;2023-06-22T09:13:20;11.10;;;9.70;;
48403;SDS011;34202;52.536;6.042;2023-06-22T09:18:22;11.60;;;9.00;;
48403;SDS011;34202;52.536;6.042;2023-06-22T09:23:22;9.80;;;8.80;;
48403;SDS011;34202;52.536;6.042;2023-06-22T09:28:23;11.20;;;8.20;;
48403;SDS011;34202;52.536;6.042;2023-06-22T09:33:24;6.00;;;5.50;;
48403;SDS011;34202;52.536;6.042;2023-06-22T09:38:25;9.70;;;7.10;;
48403;SDS011;34202;52.536;6.042;2023-06-22T09:43:26;9.40;;;8.30;;
48403;SDS011;34202;52.536;6.042;2023-06-22T09:48:27;8.80;;;7.90;;
48403;SDS011;34202;52.536;6.042;2023-06-22T09:53:29;6.60;;;6.00;;
48403;SDS011;34202;52.536;6.042;2023-06-22T09:58:29;10.00;;;5.70;;
48403;SDS011;34202;52.536;6.042;2023-06-22T10:03:30;12.20;;;7.60;;
48403;SDS011;34202;52.536;6.042;2023-06-22T10:08:30;6.50;;;5.70;;
48403;SDS011;34202;52.536;6.042;2023-06-22T10:13:30;8.00;;;7.20;;
48403;SDS011;34202;52.536;6.042;2023-06-22T10:18:31;8.10;;;6.40;;
48403;SDS011;34202;52.536;6.042;2023-06-22T10:23:31;5.60;;;5.00;;
48403;SDS011;34202;52.536;6.042;2023-06-22T10:28:32;6.30;;;5.60;;
48403;SDS011;34202;52.536;6.042;2023-06-22T10:33:32;6.60;;;5.10;;
48403;SDS011;34202;52.536;6.042;2023-06-22T10:38:32;5.40;;;4.40;;
48403;SDS011;34202;52.536;6.042;2023-06-22T10:43:33;5.30;;;4.80;;
48403;SDS011;34202;52.536;6.042;2023-06-22T10:48:33;6.50;;;5.20;;
48403;SDS011;34202;52.536;6.042;2023-06-22T10:53:33;5.70;;;4.90;;
48403;SDS011;34202;52.536;6.042;2023-06-22T10:58:34;6.30;;;5.20;;
48403;SDS011;34202;52.536;6.042;2023-06-22T11:03:34;5.30;;;4.40;;
48403;SDS011;34202;52.536;6.042;2023-06-22T11:08:34;5.70;;;5.00;;
48403;SDS011;34202;52.536;6.042;2023-06-22T11:13:35;6.50;;;4.30;;
48403;SDS011;34202;52.536;6.042;2023-06-22T11:18:35;7.10;;;5.00;;
48403;SDS011;34202;52.536;6.042;2023-06-22T11:23:36;5.30;;;4.70;;
48403;SDS011;34202;52.536;6.042;2023-06-22T11:28:36;11.60;;;4.90;;
48403;SDS011;34202;52.536;6.042;2023-06-22T11:33:37;4.10;;;3.70;;
48403;SDS011;34202;52.536;6.042;2023-06-22T11:38:37;4.40;;;4.00;;
48403;SDS011;34202;52.536;6.042;2023-06-22T11:43:39;6.80;;;4.20;;
48403;SDS011;34202;52.536;6.042;2023-06-22T11:48:39;4.60;;;4.10;;
48403;SDS011;34202;52.536;6.042;2023-06-22T11:53:40;5.70;;;4.90;;
48403;SDS011;34202;52.536;6.042;2023-06-22T11:58:40;4.70;;;4.30;;
48403;SDS011;34202;52.536;6.042;2023-06-22T12:03:41;5.30;;;4.80;;
48403;SDS011;34202;52.536;6.042;2023-06-22T12:08:43;5.50;;;4.70;;
48403;SDS011;34202;52.536;6.042;2023-06-22T12:13:43;4.30;;;3.90;;
48403;SDS011;34202;52.536;6.042;2023-06-22T12:18:44;5.90;;;5.00;;
48403;SDS011;34202;52.536;6.042;2023-06-22T12:23:44;7.10;;;5.70;;
48403;SDS011;34202;52.536;6.042;2023-06-22T12:28:45;8.10;;;5.10;;
48403;SDS011;34202;52.536;6.042;2023-06-22T12:33:45;5.60;;;4.80;;
48403;SDS011;34202;52.536;6.042;2023-06-22T12:38:45;5.90;;;4.60;;
48403;SDS011;34202;52.536;6.042;2023-06-22T12:43:46;6.50;;;4.90;;
48403;SDS011;34202;52.536;6.042;2023-06-22T12:48:46;6.40;;;4.30;;
48403;SDS011;34202;52.536;6.042;2023-06-22T12:53:47;4.90;;;3.50;;
48403;SDS011;34202;52.536;6.042;2023-06-22T12:58:47;10.50;;;4.90;;
48403;SDS011;34202;52.536;6.042;2023-06-22T13:03:48;10.00;;;5.50;;
48403;SDS011;34202;52.536;6.042;2023-06-22T13:08:48;8.30;;;5.10;;
48403;SDS011;34202;52.536;6.042;2023-06-22T13:13:49;6.60;;;5.60;;
48403;SDS011;34202;52.536;6.042;2023-06-22T13:18:49;7.60;;;6.80;;
48403;SDS011;34202;52.536;6.042;2023-06-22T13:23:49;5.60;;;5.10;;
48403;SDS011;34202;52.536;6.042;2023-06-22T13:28:50;10.60;;;5.90;;
48403;SDS011;34202;52.536;6.042;2023-06-22T13:33:50;9.60;;;6.00;;
48403;SDS011;34202;52.536;6.042;2023-06-22T13:38:52;7.50;;;6.10;;
48403;SDS011;34202;52.536;6.042;2023-06-22T13:43:52;13.80;;;6.30;;
48403;SDS011;34202;52.536;6.042;2023-06-22T13:48:53;12.90;;;6.50;;
48403;SDS011;34202;52.536;6.042;2023-06-22T13:53:53;9.20;;;7.10;;
48403;SDS011;34202;52.536;6.042;2023-06-22T13:58:53;10.70;;;7.00;;
48403;SDS011;34202;52.536;6.042;2023-06-22T14:03:54;9.00;;;7.60;;
48403;SDS011;34202;52.536;6.042;2023-06-22T14:08:54;8.50;;;7.20;;
48403;SDS011;34202;52.536;6.042;2023-06-22T14:13:54;8.60;;;7.80;;
48403;SDS011;34202;52.536;6.042;2023-06-22T14:18:55;9.20;;;7.10;;
48403;SDS011;34202;52.536;6.042;2023-06-22T14:23:55;11.90;;;9.10;;
48403;SDS011;34202;52.536;6.042;2023-06-22T14:28:55;9.70;;;8.70;;
48403;SDS011;34202;52.536;6.042;2023-06-22T14:33:56;12.00;;;9.10;;
48403;SDS011;34202;52.536;6.042;2023-06-22T14:38:57;11.40;;;10.20;;
48403;SDS011;34202;52.536;6.042;2023-06-22T14:43:57;10.60;;;9.60;;
48403;SDS011;34202;52.536;6.042;2023-06-22T14:48:58;11.10;;;10.00;;
48403;SDS011;34202;52.536;6.042;2023-06-22T14:53:58;12.20;;;9.90;;
48403;SDS011;34202;52.536;6.042;2023-06-22T14:58:58;13.60;;;12.00;;
48403;SDS011;34202;52.536;6.042;2023-06-22T15:03:59;11.70;;;10.50;;
48403;SDS011;34202;52.536;6.042;2023-06-22T15:08:59;12.20;;;10.50;;
48403;SDS011;34202;52.536;6.042;2023-06-22T15:13:59;13.30;;;11.80;;
48403;SDS011;34202;52.536;6.042;2023-06-22T15:19:00;10.50;;;9.50;;
48403;SDS011;34202;52.536;6.042;2023-06-22T15:24:01;12.10;;;10.90;;
48403;SDS011;34202;52.536;6.042;2023-06-22T15:29:02;10.90;;;9.90;;
48403;SDS011;34202;52.536;6.042;2023-06-22T15:34:02;13.20;;;11.60;;
48403;SDS011;34202;52.536;6.042;2023-06-22T15:39:03;11.80;;;10.60;;
48403;SDS011;34202;52.536;6.042;2023-06-22T15:44:04;13.60;;;11.80;;
48403;SDS011;34202;52.536;6.042;2023-06-22T15:49:04;12.70;;;11.50;;
48403;SDS011;34202;52.536;6.042;2023-06-22T15:54:05;12.30;;;10.80;;
48403;SDS011;34202;52.536;6.042;2023-06-22T15:59:06;18.10;;;12.90;;
48403;SDS011;34202;52.536;6.042;2023-06-22T16:04:06;12.80;;;11.50;;
48403;SDS011;34202;52.536;6.042;2023-06-22T16:09:07;15.90;;;11.90;;
48403;SDS011;34202;52.536;6.042;2023-06-22T16:14:07;17.30;;;13.20;;
48403;SDS011;34202;52.536;6.042;2023-06-22T16:19:09;12.90;;;11.50;;
48403;SDS011;34202;52.536;6.042;2023-06-22T16:24:10;11.70;;;10.20;;
48403;SDS011;34202;52.536;6.042;2023-06-22T16:29:10;15.50;;;11.70;;
48403;SDS011;34202;52.536;6.042;2023-06-22T16:34:11;12.70;;;11.40;;
48403;SDS011;34202;52.536;6.042;2023-06-22T16:39:11;13.30;;;11.80;;
48403;SDS011;34202;52.536;6.042;2023-06-22T16:44:11;12.60;;;11.30;;
48403;SDS011;34202;52.536;6.042;2023-06-22T16:49:12;12.80;;;9.90;;
48403;SDS011;34202;52.536;6.042;2023-06-22T16:54:12;11.80;;;8.80;;
48403;SDS011;34202;52.536;6.042;2023-06-22T16:59:14;10.20;;;9.20;;
48403;SDS011;34202;52.536;6.042;2023-06-22T17:04:14;11.50;;;9.60;;
48403;SDS011;34202;52.536;6.042;2023-06-22T17:09:18;10.30;;;8.50;;
48403;SDS011;34202;52.536;6.042;2023-06-22T17:14:21;8.50;;;7.20;;
48403;SDS011;34202;52.536;6.042;2023-06-22T17:19:22;8.60;;;7.30;;
48403;SDS011;34202;52.536;6.042;2023-06-22T17:24:24;11.90;;;8.10;;
48403;SDS011;34202;52.536;6.042;2023-06-22T17:29:27;8.50;;;7.10;;
48403;SDS011;34202;52.536;6.042;2023-06-22T17:34:33;8.00;;;6.40;;
48403;SDS011;34202;52.536;6.042;2023-06-22T17:39:35;7.60;;;6.00;;
48403;SDS011;34202;52.536;6.042;2023-06-22T17:44:35;5.70;;;5.20;;
48403;SDS011;34202;52.536;6.042;2023-06-22T17:49:36;7.40;;;5.10;;
48403;SDS011;34202;52.536;6.042;2023-06-22T17:54:38;5.90;;;4.90;;
48403;SDS011;34202;52.536;6.042;2023-06-22T17:59:38;7.20;;;5.80;;
48403;SDS011;34202;52.536;6.042;2023-06-22T18:04:39;9.40;;;5.30;;
48403;SDS011;34202;52.536;6.042;2023-06-22T18:09:40;8.80;;;6.00;;
48403;SDS011;34202;52.536;6.042;2023-06-22T18:14:41;6.60;;;6.00;;
48403;SDS011;34202;52.536;6.042;2023-06-22T18:19:41;5.80;;;5.30;;
48403;SDS011;34202;52.536;6.042;2023-06-22T18:24:44;5.70;;;4.70;;
48403;SDS011;34202;52.536;6.042;2023-06-22T18:29:47;5.00;;;4.50;;
48403;SDS011;34202;52.536;6.042;2023-06-22T18:34:49;5.80;;;4.80;;
48403;SDS011;34202;52.536;6.042;2023-06-22T18:39:53;5.00;;;4.20;;
48403;SDS011;34202;52.536;6.042;2023-06-22T18:44:55;3.50;;;3.10;;
48403;SDS011;34202;52.536;6.042;2023-06-22T18:50:05;6.00;;;3.90;;
48403;SDS011;34202;52.536;6.042;2023-06-22T18:55:10;3.80;;;3.50;;
48403;SDS011;34202;52.536;6.042;2023-06-22T19:00:11;5.30;;;2.90;;
48403;SDS011;34202;52.536;6.042;2023-06-22T19:05:18;5.00;;;3.00;;
48403;SDS011;34202;52.536;6.042;2023-06-22T19:10:40;3.30;;;2.80;;
48403;SDS011;34202;52.536;6.042;2023-06-22T19:15:43;5.10;;;3.10;;
48403;SDS011;34202;52.536;6.042;2023-06-22T19:20:47;4.80;;;2.30;;
48403;SDS011;34202;52.536;6.042;2023-06-22T19:25:48;3.30;;;2.80;;
48403;SDS011;34202;52.536;6.042;2023-06-22T19:30:49;3.50;;;2.70;;
48403;SDS011;34202;52.536;6.042;2023-06-22T19:35:56;5.90;;;2.70;;
48403;SDS011;34202;52.536;6.042;2023-06-22T19:40:59;5.60;;;4.00;;
48403;SDS011;34202;52.536;6.042;2023-06-22T19:46:01;4.30;;;2.70;;
48403;SDS011;34202;52.536;6.042;2023-06-22T19:51:02;6.30;;;4.40;;
48403;SDS011;34202;52.536;6.042;2023-06-22T19:56:04;6.10;;;4.60;;
48403;SDS011;34202;52.536;6.042;2023-06-22T20:01:04;7.70;;;5.50;;
48403;SDS011;34202;52.536;6.042;2023-06-22T20:06:08;8.10;;;5.30;;
48403;SDS011;34202;52.536;6.042;2023-06-22T20:11:09;7.10;;;4.60;;
48403;SDS011;34202;52.536;6.042;2023-06-22T20:16:10;6.60;;;4.70;;
48403;SDS011;34202;52.536;6.042;2023-06-22T20:21:10;6.20;;;4.50;;
48403;SDS011;34202;52.536;6.042;2023-06-22T20:26:12;8.60;;;5.00;;
48403;SDS011;34202;52.536;6.042;2023-06-22T20:31:16;7.00;;;5.10;;
48403;SDS011;34202;52.536;6.042;2023-06-22T20:36:17;10.40;;;5.50;;
48403;SDS011;34202;52.536;6.042;2023-06-22T20:41:18;6.70;;;6.00;;
48403;SDS011;34202;52.536;6.042;2023-06-22T20:46:18;9.30;;;5.70;;
48403;SDS011;34202;52.536;6.042;2023-06-22T20:51:18;8.50;;;5.40;;
48403;SDS011;34202;52.536;6.042;2023-06-22T20:56:19;7.80;;;5.70;;
48403;SDS011;34202;52.536;6.042;2023-06-22T21:01:19;9.00;;;5.60;;
48403;SDS011;34202;52.536;6.042;2023-06-22T21:06:20;8.50;;;6.50;;
48403;SDS011;34202;52.536;6.042;2023-06-22T21:11:20;7.80;;;6.30;;
48403;SDS011;34202;52.536;6.042;2023-06-22T21:16:21;6.80;;;6.10;;
48403;SDS011;34202;52.536;6.042;2023-06-22T21:21:21;8.00;;;6.70;;
48403;SDS011;34202;52.536;6.042;2023-06-22T21:26:22;10.30;;;5.70;;
48403;SDS011;34202;52.536;6.042;2023-06-22T21:31:22;6.50;;;5.90;;
48403;SDS011;34202;52.536;6.042;2023-06-22T21:36:23;9.50;;;6.40;;
48403;SDS011;34202;52.536;6.042;2023-06-22T21:41:23;9.80;;;7.10;;
48403;SDS011;34202;52.536;6.042;2023-06-22T21:46:24;9.10;;;6.20;;
48403;SDS011;34202;52.536;6.042;2023-06-22T21:51:24;9.60;;;7.20;;
48403;SDS011;34202;52.536;6.042;2023-06-22T21:56:24;12.40;;;6.50;;
48403;SDS011;34202;52.536;6.042;2023-06-22T22:01:25;8.50;;;6.50;;
48403;SDS011;34202;52.536;6.042;2023-06-22T22:06:25;7.00;;;6.20;;
48403;SDS011;34202;52.536;6.042;2023-06-22T22:11:28;9.40;;;7.30;;
48403;SDS011;34202;52.536;6.042;2023-06-22T22:16:28;7.70;;;5.50;;
48403;SDS011;34202;52.536;6.042;2023-06-22T22:21:28;7.50;;;5.60;;
48403;SDS011;34202;52.536;6.042;2023-06-22T22:26:29;8.20;;;6.00;;
48403;SDS011;34202;52.536;6.042;2023-06-22T22:31:29;8.90;;;6.60;;
48403;SDS011;34202;52.536;6.042;2023-06-22T22:36:37;7.70;;;6.90;;
48403;SDS011;34202;52.536;6.042;2023-06-22T22:41:39;7.60;;;5.80;;
48403;SDS011;34202;52.536;6.042;2023-06-22T22:46:40;6.20;;;5.60;;
48403;SDS011;34202;52.536;6.042;2023-06-22T22:51:40;7.10;;;6.10;;
48403;SDS011;34202;52.536;6.042;2023-06-22T22:56:41;11.60;;;6.40;;
48403;SDS011;34202;52.536;6.042;2023-06-22T23:01:41;6.90;;;6.10;;
48403;SDS011;34202;52.536;6.042;2023-06-22T23:06:41;8.50;;;6.70;;
48403;SDS011;34202;52.536;6.042;2023-06-22T23:11:42;8.60;;;7.60;;
48403;SDS011;34202;52.536;6.042;2023-06-22T23:16:43;8.40;;;7.40;;
48403;SDS011;34202;52.536;6.042;2023-06-22T23:21:43;6.80;;;5.50;;
48403;SDS011;34202;52.536;6.042;2023-06-22T23:26:44;9.40;;;6.50;;
48403;SDS011;34202;52.536;6.042;2023-06-22T23:31:47;8.10;;;6.40;;
48403;SDS011;34202;52.536;6.042;2023-06-22T23:36:47;8.60;;;7.40;;
48403;SDS011;34202;52.536;6.042;2023-06-22T23:41:48;7.30;;;6.50;;
48403;SDS011;34202;52.536;6.042;2023-06-22T23:46:49;7.40;;;5.50;;
48403;SDS011;34202;52.536;6.042;2023-06-22T23:51:49;8.70;;;6.40;;
48403;SDS011;34202;52.536;6.042;2023-06-22T23:56:51;9.20;;;6.70;;
